sensor_id;sensor_type;location;lat;lon;timestamp;pressure;altitude;pressure_sealevel;temperature
62107;BMP280;48087;32.600;-97.100;2022-08-01T10:46:46;;;;27.33306
62107;BMP280;48087;32.600;-97.100;2022-08-01T10:51:48;;;;27.277504999999998
62107;BMP280;48087;32.600;-97.100;2022-08-01T10:56:52;;;;27.22195
62107;BMP280;48087;32.600;-97.100;2022-08-01T11:01:57;;;;27.22195
62107;BMP280;48087;32.600;-97.100;2022-08-01T11:07:04;;;;27.11084
62107;BMP280;48087;32.600;-97.100;2022-08-01T11:14:12;;;;27.055285
62107;BMP280;48087;32.600;-97.100;2022-08-01T11:18:49;;;;26.944174999999998
62107;BMP280;48087;32.600;-97.100;2022-08-01T11:23:49;;;;26.888620000000003
62107;BMP280;48087;32.600;-97.100;2022-08-01T11:29:24;;;;26.77751
62107;BMP280;48087;32.600;-97.100;2022-08-01T11:33:57;;;;26.77751
62107;BMP280;48087;32.600;-97.100;2022-08-01T11:39:16;;;;26.721954999999998
62107;BMP280;48087;32.600;-97.100;2022-08-01T11:44:05;;;;26.6664
62107;BMP280;48087;32.600;-97.100;2022-08-01T11:49:22;;;;26.6664
62107;BMP280;48087;32.600;-97.100;2022-08-01T11:54:12;;;;26.610845
62107;BMP280;48087;32.600;-97.100;2022-08-01T11:59:16;;;;26.55529
62107;BMP280;48087;32.600;-97.100;2022-08-01T12:04:20;;;;26.55529
62107;BMP280;48087;32.600;-97.100;2022-08-01T12:09:24;;;;26.610845
62107;BMP280;48087;32.600;-97.100;2022-08-01T12:14:28;;;;26.610845
62107;BMP280;48087;32.600;-97.100;2022-08-01T12:19:32;;;;26.55529
62107;BMP280;48087;32.600;-97.100;2022-08-01T12:24:37;;;;26.610845
62107;BMP280;48087;32.600;-97.100;2022-08-01T12:29:41;;;;26.610845
62107;BMP280;48087;32.600;-97.100;2022-08-01T12:34:45;;;;26.721954999999998
62107;BMP280;48087;32.600;-97.100;2022-08-01T12:39:48;;;;26.77751
62107;BMP280;48087;32.600;-97.100;2022-08-01T12:44:52;;;;26.77751
62107;BMP280;48087;32.600;-97.100;2022-08-01T12:49:56;;;;26.944174999999998
62107;BMP280;48087;32.600;-97.100;2022-08-01T12:55:03;;;;27.22195
62107;BMP280;48087;32.600;-97.100;2022-08-01T13:00:05;;;;27.499724999999998
62107;BMP280;48087;32.600;-97.100;2022-08-01T13:05:10;;;;27.666389999999996
62107;BMP280;48087;32.600;-97.100;2022-08-01T13:10:13;;;;27.944164999999998
62107;BMP280;48087;32.600;-97.100;2022-08-01T13:15:16;;;;28.277495000000002
62107;BMP280;48087;32.600;-97.100;2022-08-01T13:20:21;;;;28.44416
62107;BMP280;48087;32.600;-97.100;2022-08-01T13:25:24;;;;28.44416
62107;BMP280;48087;32.600;-97.100;2022-08-01T13:30:28;;;;28.499715
62107;BMP280;48087;32.600;-97.100;2022-08-01T13:35:32;;;;29.166375
62107;BMP280;48087;32.600;-97.100;2022-08-01T13:40:36;;;;29.221929999999997
62107;BMP280;48087;32.600;-97.100;2022-08-01T13:45:40;;;;29.221929999999997
62107;BMP280;48087;32.600;-97.100;2022-08-01T13:50:44;;;;29.277485000000002
62107;BMP280;48087;32.600;-97.100;2022-08-01T13:55:48;;;;29.721925
62107;BMP280;48087;32.600;-97.100;2022-08-01T14:00:52;;;;30.11081
62107;BMP280;48087;32.600;-97.100;2022-08-01T14:05:56;;;;30.166365
62107;BMP280;48087;32.600;-97.100;2022-08-01T14:11:00;;;;30.610804999999996
62107;BMP280;48087;32.600;-97.100;2022-08-01T14:16:04;;;;30.499695000000003
62107;BMP280;48087;32.600;-97.100;2022-08-01T14:21:08;;;;30.66636
62107;BMP280;48087;32.600;-97.100;2022-08-01T14:26:12;;;;30.721915
62107;BMP280;48087;32.600;-97.100;2022-08-01T14:31:33;;;;30.721915
62107;BMP280;48087;32.600;-97.100;2022-08-01T14:36:35;;;;30.833025
62107;BMP280;48087;32.600;-97.100;2022-08-01T14:41:40;;;;30.833025
62107;BMP280;48087;32.600;-97.100;2022-08-01T14:46:43;;;;31.22191
62107;BMP280;48087;32.600;-97.100;2022-08-01T14:51:48;;;;31.277465
62107;BMP280;48087;32.600;-97.100;2022-08-01T14:56:52;;;;31.666349999999998
62107;BMP280;48087;32.600;-97.100;2022-08-01T15:01:56;;;;31.499685
62107;BMP280;48087;32.600;-97.100;2022-08-01T15:06:59;;;;32.166345
62107;BMP280;48087;32.600;-97.100;2022-08-01T15:12:04;;;;31.88857
62107;BMP280;48087;32.600;-97.100;2022-08-01T15:17:07;;;;32.166345
62107;BMP280;48087;32.600;-97.100;2022-08-01T15:22:12;;;;32.721895
62107;BMP280;48087;32.600;-97.100;2022-08-01T15:27:16;;;;32.610785
62107;BMP280;48087;32.600;-97.100;2022-08-01T15:32:21;;;;32.444120000000005
62107;BMP280;48087;32.600;-97.100;2022-08-01T15:37:23;;;;32.77745
62107;BMP280;48087;32.600;-97.100;2022-08-01T15:42:28;;;;33.221889999999995
62107;BMP280;48087;32.600;-97.100;2022-08-01T15:47:31;;;;33.166335000000004
62107;BMP280;48087;32.600;-97.100;2022-08-01T15:52:35;;;;32.77745
62107;BMP280;48087;32.600;-97.100;2022-08-01T15:57:40;;;;33.94410499999999
62107;BMP280;48087;32.600;-97.100;2022-08-01T16:02:44;;;;33.832995000000004
62107;BMP280;48087;32.600;-97.100;2022-08-01T16:07:47;;;;33.94410499999999
62107;BMP280;48087;32.600;-97.100;2022-08-01T16:12:51;;;;34.4441
62107;BMP280;48087;32.600;-97.100;2022-08-01T16:17:55;;;;34.721875
62107;BMP280;48087;32.600;-97.100;2022-08-01T16:23:16;;;;34.610765
62107;BMP280;48087;32.600;-97.100;2022-08-01T16:28:19;;;;34.88854
62107;BMP280;48087;32.600;-97.100;2022-08-01T16:33:24;;;;36.33297
62107;BMP280;48087;32.600;-97.100;2022-08-01T16:38:27;;;;36.055195000000005
62107;BMP280;48087;32.600;-97.100;2022-08-01T16:43:32;;;;35.22187
62107;BMP280;48087;32.600;-97.100;2022-08-01T16:48:35;;;;34.66632
62107;BMP280;48087;32.600;-97.100;2022-08-01T16:53:40;;;;34.277435000000004
62107;BMP280;48087;32.600;-97.100;2022-08-01T16:58:43;;;;35.055204999999994
62107;BMP280;48087;32.600;-97.100;2022-08-01T17:03:48;;;;35.610755
62107;BMP280;48087;32.600;-97.100;2022-08-01T17:08:51;;;;35.388535
62107;BMP280;48087;32.600;-97.100;2022-08-01T17:13:56;;;;36.055195000000005
62107;BMP280;48087;32.600;-97.100;2022-08-01T17:19:00;;;;34.88854
62107;BMP280;48087;32.600;-97.100;2022-08-01T17:24:05;;;;34.944095000000004
62107;BMP280;48087;32.600;-97.100;2022-08-01T17:29:07;;;;35.166315
62107;BMP280;48087;32.600;-97.100;2022-08-01T17:34:11;;;;36.77741
62107;BMP280;48087;32.600;-97.100;2022-08-01T17:39:15;;;;38.11073
62107;BMP280;48087;32.600;-97.100;2022-08-01T17:44:20;;;;37.721845
62107;BMP280;48087;32.600;-97.100;2022-08-01T17:49:23;;;;36.832964999999994
62107;BMP280;48087;32.600;-97.100;2022-08-01T17:54:28;;;;38.33295
62107;BMP280;48087;32.600;-97.100;2022-08-01T17:59:31;;;;38.610725
62107;BMP280;48087;32.600;-97.100;2022-08-01T18:04:35;;;;38.721835
62107;BMP280;48087;32.600;-97.100;2022-08-01T18:09:39;;;;39.44405
62107;BMP280;48087;32.600;-97.100;2022-08-01T18:14:43;;;;38.721835
62107;BMP280;48087;32.600;-97.100;2022-08-01T18:19:47;;;;38.166285
62107;BMP280;48087;32.600;-97.100;2022-08-01T18:24:51;;;;38.999610000000004
62107;BMP280;48087;32.600;-97.100;2022-08-01T18:29:55;;;;37.7774
62107;BMP280;48087;32.600;-97.100;2022-08-01T18:34:59;;;;37.610735
62107;BMP280;48087;32.600;-97.100;2022-08-01T18:40:03;;;;37.721845
62107;BMP280;48087;32.600;-97.100;2022-08-01T18:45:07;;;;39.388495
62107;BMP280;48087;32.600;-97.100;2022-08-01T18:50:11;;;;39.11072
62107;BMP280;48087;32.600;-97.100;2022-08-01T18:55:15;;;;39.55516
62107;BMP280;48087;32.600;-97.100;2022-08-01T19:00:19;;;;38.944055
62107;BMP280;48087;32.600;-97.100;2022-08-01T19:05:23;;;;38.166285
62107;BMP280;48087;32.600;-97.100;2022-08-01T19:10:28;;;;38.721835
62107;BMP280;48087;32.600;-97.100;2022-08-01T19:15:32;;;;39.88849
62107;BMP280;48087;32.600;-97.100;2022-08-01T19:20:35;;;;40.66626
62107;BMP280;48087;32.600;-97.100;2022-08-01T19:25:39;;;;40.44404
62107;BMP280;48087;32.600;-97.100;2022-08-01T19:30:43;;;;39.277385
62107;BMP280;48087;32.600;-97.100;2022-08-01T19:35:48;;;;41.44403
62107;BMP280;48087;32.600;-97.100;2022-08-01T19:40:51;;;;40.66626
62107;BMP280;48087;32.600;-97.100;2022-08-01T19:45:55;;;;40.721815
62107;BMP280;48087;32.600;-97.100;2022-08-01T19:50:58;;;;39.721825
62107;BMP280;48087;32.600;-97.100;2022-08-01T19:56:05;;;;40.99959
62107;BMP280;48087;32.600;-97.100;2022-08-01T20:01:09;;;;41.44403
62107;BMP280;48087;32.600;-97.100;2022-08-01T20:06:13;;;;41.44403
62107;BMP280;48087;32.600;-97.100;2022-08-01T20:11:16;;;;40.721815
62107;BMP280;48087;32.600;-97.100;2022-08-01T20:16:18;;;;41.388475
62107;BMP280;48087;32.600;-97.100;2022-08-01T20:21:25;;;;40.499595
62107;BMP280;48087;32.600;-97.100;2022-08-01T20:26:28;;;;41.66625
62107;BMP280;48087;32.600;-97.100;2022-08-01T20:31:31;;;;41.999579999999995
62107;BMP280;48087;32.600;-97.100;2022-08-01T20:36:35;;;;40.55515
62107;BMP280;48087;32.600;-97.100;2022-08-01T20:41:40;;;;40.610704999999996
62107;BMP280;48087;32.600;-97.100;2022-08-01T20:46:43;;;;41.22181
62107;BMP280;48087;32.600;-97.100;2022-08-01T20:51:47;;;;40.388485
62107;BMP280;48087;32.600;-97.100;2022-08-01T20:56:53;;;;41.721804999999996
62107;BMP280;48087;32.600;-97.100;2022-08-01T21:01:56;;;;41.944024999999996
62107;BMP280;48087;32.600;-97.100;2022-08-01T21:07:00;;;;39.944045
62107;BMP280;48087;32.600;-97.100;2022-08-01T21:12:03;;;;39.166275
62107;BMP280;48087;32.600;-97.100;2022-08-01T21:17:14;;;;41.1107
62107;BMP280;48087;32.600;-97.100;2022-08-01T21:22:14;;;;41.33292
62107;BMP280;48087;32.600;-97.100;2022-08-01T21:27:14;;;;39.666270000000004
62107;BMP280;48087;32.600;-97.100;2022-08-01T21:32:19;;;;39.499604999999995
62107;BMP280;48087;32.600;-97.100;2022-08-01T21:37:22;;;;40.888479999999994
62107;BMP280;48087;32.600;-97.100;2022-08-01T21:42:27;;;;41.16625499999999
62107;BMP280;48087;32.600;-97.100;2022-08-01T21:47:31;;;;41.721804999999996
62107;BMP280;48087;32.600;-97.100;2022-08-01T21:52:40;;;;41.999579999999995
62107;BMP280;48087;32.600;-97.100;2022-08-01T21:57:43;;;;41.610695
62107;BMP280;48087;32.600;-97.100;2022-08-01T22:02:46;;;;40.610704999999996
62107;BMP280;48087;32.600;-97.100;2022-08-01T22:07:47;;;;40.55515
62107;BMP280;48087;32.600;-97.100;2022-08-01T22:12:51;;;;40.55515
62107;BMP280;48087;32.600;-97.100;2022-08-01T22:18:11;;;;39.610715
62107;BMP280;48087;32.600;-97.100;2022-08-01T22:23:15;;;;39.721825
62107;BMP280;48087;32.600;-97.100;2022-08-01T22:28:18;;;;40.777370000000005
62107;BMP280;48087;32.600;-97.100;2022-08-01T22:33:23;;;;41.22181
62107;BMP280;48087;32.600;-97.100;2022-08-01T22:38:26;;;;40.55515
62107;BMP280;48087;32.600;-97.100;2022-08-01T22:43:34;;;;40.888479999999994
62107;BMP280;48087;32.600;-97.100;2022-08-01T22:48:35;;;;41.44403
62107;BMP280;48087;32.600;-97.100;2022-08-01T22:53:40;;;;41.33292
62107;BMP280;48087;32.600;-97.100;2022-08-01T22:58:42;;;;40.777370000000005
62107;BMP280;48087;32.600;-97.100;2022-08-01T23:03:48;;;;40.166264999999996
62107;BMP280;48087;32.600;-97.100;2022-08-01T23:08:50;;;;40.721815
62107;BMP280;48087;32.600;-97.100;2022-08-01T23:13:55;;;;41.1107
62107;BMP280;48087;32.600;-97.100;2022-08-01T23:18:59;;;;40.499595
62107;BMP280;48087;32.600;-97.100;2022-08-01T23:24:02;;;;40.388485
62107;BMP280;48087;32.600;-97.100;2022-08-01T23:29:06;;;;40.499595
62107;BMP280;48087;32.600;-97.100;2022-08-01T23:34:11;;;;39.610715
62107;BMP280;48087;32.600;-97.100;2022-08-01T23:39:30;;;;38.832945
62107;BMP280;48087;32.600;-97.100;2022-08-01T23:44:35;;;;39.666270000000004
62107;BMP280;48087;32.600;-97.100;2022-08-01T23:49:38;;;;39.721825
62107;BMP280;48087;32.600;-97.100;2022-08-01T23:54:42;;;;38.944055
62107;BMP280;48087;32.600;-97.100;2022-08-01T23:59:46;;;;39.499604999999995
